<?xml version="1.0" encoding="UTF-8" standalone="no" ?>
<gpx xmlns="http://www.topografix.com/GPX/1/1" xmlns:xsi="http://www.w3.org/2001/XMLSchema-instance" xsi:schemaLocation="http://www.topografix.com/GPX/1/1 http://www.topografix.com/GPX/1/1/gpx.xsd" version="1.1" creator="VisuGPX - https://www.visugpx.com">
  <metadata>
    <name>Ligne_Autour_11-22km</name>
    <desc><![CDATA[gnerando idor:6837548_6837567_8321596_12827438_13194341_]]></desc>
  </metadata>
  <trk>
    <name><![CDATA[Ligne_Foret_11.7km-6835703]]></name>
    <extensions>
      <line xmlns="http://www.topografix.com/GPX/gpx_style/0/2">
        <color>008000</color>
        <width>4</width>
      </line>
    </extensions>
    <trkseg>
      <trkpt lat="47.40776" lon="-1.37236">
        <ele>36</ele>
        <time>2024-12-22T14:24:14Z</time>
      </trkpt>
      <trkpt lat="47.40881" lon="-1.37182">
        <ele>41</ele>
        <time>2024-12-22T14:26:42Z</time>
      </trkpt>
      <trkpt lat="47.4085" lon="-1.36971">
        <ele>42</ele>
        <time>2024-12-22T14:29:57Z</time>
      </trkpt>
      <trkpt lat="47.40729" lon="-1.36886">
        <ele>38</ele>
        <time>2024-12-22T14:32:56Z</time>
      </trkpt>
      <trkpt lat="47.40671" lon="-1.36937">
        <ele>38</ele>
        <time>2024-12-22T14:34:26Z</time>
      </trkpt>
      <trkpt lat="47.40625" lon="-1.36966">
        <ele>37</ele>
        <time>2024-12-22T14:35:33Z</time>
      </trkpt>
      <trkpt lat="47.40566" lon="-1.36993">
        <ele>37</ele>
        <time>2024-12-22T14:36:55Z</time>
      </trkpt>
      <trkpt lat="47.4046" lon="-1.37023">
        <ele>36</ele>
        <time>2024-12-22T14:39:19Z</time>
      </trkpt>
      <trkpt lat="47.40419" lon="-1.37036">
        <ele>37</ele>
        <time>2024-12-22T14:40:15Z</time>
      </trkpt>
      <trkpt lat="47.40299" lon="-1.3707">
        <ele>41</ele>
        <time>2024-12-22T14:42:58Z</time>
      </trkpt>
      <trkpt lat="47.39886" lon="-1.37193">
        <ele>50</ele>
        <time>2024-12-22T14:52:21Z</time>
      </trkpt>
      <trkpt lat="47.39823" lon="-1.37211">
        <ele>51</ele>
        <time>2024-12-22T14:53:46Z</time>
      </trkpt>
      <trkpt lat="47.39805" lon="-1.37216">
        <ele>52</ele>
        <time>2024-12-22T14:54:11Z</time>
      </trkpt>
      <trkpt lat="47.39587" lon="-1.37277">
        <ele>53</ele>
        <time>2024-12-22T14:59:07Z</time>
      </trkpt>
      <trkpt lat="47.39459" lon="-1.37315">
        <ele>51</ele>
        <time>2024-12-22T15:02:01Z</time>
      </trkpt>
      <trkpt lat="47.39312" lon="-1.37362">
        <ele>49</ele>
        <time>2024-12-22T15:05:22Z</time>
      </trkpt>
      <trkpt lat="47.39238" lon="-1.37388">
        <ele>49</ele>
        <time>2024-12-22T15:07:03Z</time>
      </trkpt>
      <trkpt lat="47.38956" lon="-1.3754">
        <ele>46</ele>
        <time>2024-12-22T15:13:44Z</time>
      </trkpt>
      <trkpt lat="47.38622" lon="-1.37725">
        <ele>49</ele>
        <time>2024-12-22T15:21:40Z</time>
      </trkpt>
      <trkpt lat="47.3849" lon="-1.37801">
        <ele>49</ele>
        <time>2024-12-22T15:24:49Z</time>
      </trkpt>
      <trkpt lat="47.38579" lon="-1.38169">
        <ele>52</ele>
        <time>2024-12-22T15:30:42Z</time>
      </trkpt>
      <trkpt lat="47.38602" lon="-1.38237">
        <ele>51</ele>
        <time>2024-12-22T15:31:51Z</time>
      </trkpt>
      <trkpt lat="47.38279" lon="-1.38348">
        <ele>49</ele>
        <time>2024-12-22T15:39:13Z</time>
      </trkpt>
      <trkpt lat="47.38189" lon="-1.38378">
        <ele>47</ele>
        <time>2024-12-22T15:41:16Z</time>
      </trkpt>
      <trkpt lat="47.37698" lon="-1.38382">
        <ele>52</ele>
        <time>2024-12-22T15:52:12Z</time>
      </trkpt>
      <trkpt lat="47.37463" lon="-1.37871">
        <ele>53</ele>
        <time>2024-12-22T16:01:30Z</time>
      </trkpt>
      <trkpt lat="47.37345" lon="-1.3762">
        <ele>53</ele>
        <time>2024-12-22T16:06:06Z</time>
      </trkpt>
      <trkpt lat="47.37305" lon="-1.37535">
        <ele>53</ele>
        <time>2024-12-22T16:07:39Z</time>
      </trkpt>
      <trkpt lat="47.37306" lon="-1.37505">
        <ele>53</ele>
        <time>2024-12-22T16:08:07Z</time>
      </trkpt>
      <trkpt lat="47.37287" lon="-1.37485">
        <ele>53</ele>
        <time>2024-12-22T16:08:38Z</time>
      </trkpt>
      <trkpt lat="47.37237" lon="-1.37397">
        <ele>54</ele>
        <time>2024-12-22T16:10:22Z</time>
      </trkpt>
      <trkpt lat="47.37057" lon="-1.37187">
        <ele>50</ele>
        <time>2024-12-22T16:15:28Z</time>
      </trkpt>
      <trkpt lat="47.36916" lon="-1.3706">
        <ele>55</ele>
        <time>2024-12-22T16:19:08Z</time>
      </trkpt>
      <trkpt lat="47.36854" lon="-1.36959">
        <ele>56</ele>
        <time>2024-12-22T16:21:11Z</time>
      </trkpt>
      <trkpt lat="47.36993" lon="-1.368">
        <ele>54</ele>
        <time>2024-12-22T16:25:06Z</time>
      </trkpt>
      <trkpt lat="47.36984" lon="-1.36742">
        <ele>54</ele>
        <time>2024-12-22T16:26:00Z</time>
      </trkpt>
      <trkpt lat="47.37106" lon="-1.36669">
        <ele>54</ele>
        <time>2024-12-22T16:28:55Z</time>
      </trkpt>
      <trkpt lat="47.37231" lon="-1.3658">
        <ele>56</ele>
        <time>2024-12-22T16:32:01Z</time>
      </trkpt>
      <trkpt lat="47.37357" lon="-1.36504">
        <ele>55</ele>
        <time>2024-12-22T16:35:02Z</time>
      </trkpt>
      <trkpt lat="47.37644" lon="-1.36219">
        <ele>52</ele>
        <time>2024-12-22T16:42:44Z</time>
      </trkpt>
      <trkpt lat="47.37655" lon="-1.36213">
        <ele>51</ele>
        <time>2024-12-22T16:42:59Z</time>
      </trkpt>
      <trkpt lat="47.37812" lon="-1.36028">
        <ele>50</ele>
        <time>2024-12-22T16:47:27Z</time>
      </trkpt>
      <trkpt lat="47.37885" lon="-1.35945">
        <ele>48</ele>
        <time>2024-12-22T16:49:30Z</time>
      </trkpt>
      <trkpt lat="47.37934" lon="-1.35889">
        <ele>48</ele>
        <time>2024-12-22T16:50:53Z</time>
      </trkpt>
      <trkpt lat="47.38003" lon="-1.35952">
        <ele>47</ele>
        <time>2024-12-22T16:52:41Z</time>
      </trkpt>
      <trkpt lat="47.38051" lon="-1.35864">
        <ele>46</ele>
        <time>2024-12-22T16:54:23Z</time>
      </trkpt>
      <trkpt lat="47.38177" lon="-1.35808">
        <ele>41</ele>
        <time>2024-12-22T16:57:19Z</time>
      </trkpt>
      <trkpt lat="47.3844" lon="-1.35665">
        <ele>40</ele>
        <time>2024-12-22T17:03:33Z</time>
      </trkpt>
      <trkpt lat="47.38483" lon="-1.35849">
        <ele>40</ele>
        <time>2024-12-22T17:06:29Z</time>
      </trkpt>
      <trkpt lat="47.38547" lon="-1.36126">
        <ele>43</ele>
        <time>2024-12-22T17:10:53Z</time>
      </trkpt>
      <trkpt lat="47.38743" lon="-1.36111">
        <ele>49</ele>
        <time>2024-12-22T17:15:15Z</time>
      </trkpt>
      <trkpt lat="47.38858" lon="-1.36134">
        <ele>51</ele>
        <time>2024-12-22T17:17:50Z</time>
      </trkpt>
      <trkpt lat="47.38889" lon="-1.36146">
        <ele>51</ele>
        <time>2024-12-22T17:18:33Z</time>
      </trkpt>
      <trkpt lat="47.38987" lon="-1.36139">
        <ele>51</ele>
        <time>2024-12-22T17:20:44Z</time>
      </trkpt>
      <trkpt lat="47.39108" lon="-1.36186">
        <ele>52</ele>
        <time>2024-12-22T17:23:31Z</time>
      </trkpt>
      <trkpt lat="47.3912" lon="-1.36183">
        <ele>52</ele>
        <time>2024-12-22T17:23:47Z</time>
      </trkpt>
      <trkpt lat="47.39342" lon="-1.36233">
        <ele>55</ele>
        <time>2024-12-22T17:28:47Z</time>
      </trkpt>
      <trkpt lat="47.39521" lon="-1.36278">
        <ele>56</ele>
        <time>2024-12-22T17:32:49Z</time>
      </trkpt>
      <trkpt lat="47.39539" lon="-1.36294">
        <ele>55</ele>
        <time>2024-12-22T17:33:17Z</time>
      </trkpt>
      <trkpt lat="47.3955" lon="-1.36481">
        <ele>56</ele>
        <time>2024-12-22T17:36:07Z</time>
      </trkpt>
      <trkpt lat="47.39638" lon="-1.36621">
        <ele>54</ele>
        <time>2024-12-22T17:38:59Z</time>
      </trkpt>
      <trkpt lat="47.39707" lon="-1.36765">
        <ele>51</ele>
        <time>2024-12-22T17:41:38Z</time>
      </trkpt>
      <trkpt lat="47.39755" lon="-1.36838">
        <ele>52</ele>
        <time>2024-12-22T17:43:10Z</time>
      </trkpt>
      <trkpt lat="47.39815" lon="-1.36895">
        <ele>48</ele>
        <time>2024-12-22T17:44:46Z</time>
      </trkpt>
      <trkpt lat="47.39861" lon="-1.36903">
        <ele>46</ele>
        <time>2024-12-22T17:45:47Z</time>
      </trkpt>
      <trkpt lat="47.40113" lon="-1.36784">
        <ele>41</ele>
        <time>2024-12-22T17:51:40Z</time>
      </trkpt>
      <trkpt lat="47.40317" lon="-1.36673">
        <ele>34</ele>
        <time>2024-12-22T17:56:31Z</time>
      </trkpt>
      <trkpt lat="47.4037" lon="-1.36544">
        <ele>33</ele>
        <time>2024-12-22T17:58:47Z</time>
      </trkpt>
      <trkpt lat="47.40629" lon="-1.36782">
        <ele>36</ele>
        <time>2024-12-22T18:05:34Z</time>
      </trkpt>
      <trkpt lat="47.40732" lon="-1.36886">
        <ele>38</ele>
        <time>2024-12-22T18:08:20Z</time>
      </trkpt>
      <trkpt lat="47.40852" lon="-1.36961">
        <ele>42</ele>
        <time>2024-12-22T18:11:14Z</time>
      </trkpt>
      <trkpt lat="47.40886" lon="-1.37165">
        <ele>42</ele>
        <time>2024-12-22T18:14:24Z</time>
      </trkpt>
      <trkpt lat="47.40777" lon="-1.3722">
        <ele>36</ele>
        <time>2024-12-22T18:16:58Z</time>
      </trkpt>
      <trkpt lat="47.40798" lon="-1.37289">
        <ele>36</ele>
        <time>2024-12-22T18:18:06Z</time>
      </trkpt>
      <trkpt lat="47.40748" lon="-1.37296">
        <ele>34</ele>
        <time>2024-12-22T18:19:13Z</time>
      </trkpt>
    </trkseg>
  </trk>
</gpx>